This is the latest recevied weather packets stored in our database for station/object KC9ZAR-13. If no packets are shown the sender has not sent any weather packets the latest 10 day(s).
| Time | Temp. | Humidity | Pressure | Rain* | Wind** | Luminosity | Snow |
|---|---|---|---|---|---|---|---|
| 1778135705 | 6.67° C | 93% | 1014 hPa | 0 mm | - | 0 W/m² | - |
| 1778133905 | 7.22° C | 93% | 1014.1 hPa | 0 mm | - | 0 W/m² | - |
| 1778131205 | 7.78° C | 92% | 1013.9 hPa | 0 mm | - | 0 W/m² | - |
| 1778130604 | 7.78° C | 92% | 1013.9 hPa | 0 mm | - | 0 W/m² | - |
| 1778125505 | 8.33° C | 90% | 1014 hPa | 0 mm | - | 0 W/m² | - |
| 1778120704 | 10° C | 85% | 1013.6 hPa | 0 mm | - | 0 W/m² | - |
| 1778118305 | 11.11° C | 78% | 1013 hPa | 0 mm | - | 0 W/m² | - |
| 1778118006 | 11.67° C | 77% | 1013 hPa | 0 mm | - | 0 W/m² | - |
| 1778117106 | 12.22° C | 73% | 1012.9 hPa | 0 mm | - | 0 W/m² | - |
| 1778116506 | 12.78° C | 71% | 1012.7 hPa | 0 mm | - | 0 W/m² | - |
| 1778110506 | 16.11° C | 57% | 1012.2 hPa | 0 mm | - | 0 W/m² | - |
| 1778108705 | 17.22° C | 49% | 1012.2 hPa | 0 mm | - | 0 W/m² | - |
| 1778106305 | 16.67° C | 52% | 1012.4 hPa | 0 mm | - | 0 W/m² | - |
| 1778101506 | 16.11° C | 56% | 1012.4 hPa | 0 mm | - | 0 W/m² | - |
| 1778099706 | 16.11° C | 51% | 1012.4 hPa | 0 mm | - | 0 W/m² | - |
| 1778098805 | 16.67° C | 52% | 1012.6 hPa | 0 mm | - | 0 W/m² | - |
| 1778097006 | 16.67° C | 54% | 1012.4 hPa | 0 mm | - | 0 W/m² | - |
| 1778096705 | 16.67° C | 56% | 1012.4 hPa | 0 mm | - | 0 W/m² | - |
| 1778095205 | 16.11° C | 58% | 1012.5 hPa | 0 mm | - | 0 W/m² | - |
| 1778094605 | 16.11° C | 58% | 1012.5 hPa | 0 mm | - | 0 W/m² | - |
| 1778087406 | 13.89° C | 64% | 1012.8 hPa | 0 mm | - | 0 W/m² | - |
| 1778085606 | 13.33° C | 68% | 1012.9 hPa | 0 mm | - | 0 W/m² | - |
| 1778084705 | 13.33° C | 71% | 1012.9 hPa | 0 mm | - | 0 W/m² | - |
| 1778083506 | 12.78° C | 71% | 1012.8 hPa | 0 mm | - | 0 W/m² | - |
| 1778081405 | 12.78° C | 72% | 1012.5 hPa | 0 mm | - | 0 W/m² | - |
* Rain latest hour (hover to see other rain measurements)
** Current wind speed in m/s (hover to see current wind gust speed)